LKTB/BRQ METAR and TAF weather

Enter ICAO airport designator
Station Type Date Time Source
LKTB METAR 2022/11/27 09:00 UTC NOAA

LKTB 270900Z 00000KT 9999 BKN048 04/02 Q1029 NOSIG


Station Type Date Time Source
LKTB Decoded METAR 2022/11/27 09:00 UTC NOAA

Brno / Turany, Czech Republic (LKTB) 49-09N 016-42E 246M
Nov 27, 2022 - 04:00 AM EST / 2022.11.27 0900 UTC
Wind: Calm:0
Visibility: greater than 7 mile(s):0
Sky conditions: mostly cloudy
Temperature: 39 F (4 C)
Dew Point: 35 F (2 C)
Relative Humidity: 86%
Pressure (altimeter): 30.39 in. Hg (1029 hPa)
ob: LKTB 270900Z 00000KT 9999 BKN048 04/02 Q1029 NOSIG
cycle: 9

Station Type Date Time Source
LKTB TAF 2022/11/27 06:30 UTC NOAA

TAF LKTB 270500Z 2706/2812 30005KT 7000 SCT030
TEMPO 2706/2708 3000 BR SCT010
BECMG 2720/2722 13006KT 2500 BR BKN010
TEMPO 2723/2812 1000 BR BKN003
BECMG 2806/2808 14011G21KT

Example: see airport list